sensor_id;sensor_type;location;lat;lon;timestamp;pressure;altitude;pressure_sealevel;temperature;humidity
63946;BME280;50122;56.330;43.838;2023-01-16T00:01:19;101832.81;;;-8.32;68.72
63946;BME280;50122;56.330;43.838;2023-01-16T00:03:46;101823.44;;;-8.32;69.02
63946;BME280;50122;56.330;43.838;2023-01-16T00:06:13;101816.91;;;-8.27;68.87
63946;BME280;50122;56.330;43.838;2023-01-16T00:08:41;101816.13;;;-8.26;68.85
63946;BME280;50122;56.330;43.838;2023-01-16T00:11:08;101823.00;;;-8.25;68.15
63946;BME280;50122;56.330;43.838;2023-01-16T00:13:37;101805.88;;;-8.26;68.07
63946;BME280;50122;56.330;43.838;2023-01-16T00:16:04;101811.16;;;-8.23;67.68
63946;BME280;50122;56.330;43.838;2023-01-16T00:18:31;101805.88;;;-8.26;67.82
63946;BME280;50122;56.330;43.838;2023-01-16T00:20:57;101815.13;;;-8.28;67.39
63946;BME280;50122;56.330;43.838;2023-01-16T00:23:24;101813.19;;;-8.32;67.21
63946;BME280;50122;56.330;43.838;2023-01-16T00:25:51;101802.94;;;-8.32;66.99
63946;BME280;50122;56.330;43.838;2023-01-16T00:28:17;101794.03;;;-8.39;66.99
63946;BME280;50122;56.330;43.838;2023-01-16T00:30:44;101792.50;;;-8.35;66.96
63946;BME280;50122;56.330;43.838;2023-01-16T00:33:11;101798.78;;;-8.30;66.73
63946;BME280;50122;56.330;43.838;2023-01-16T00:35:38;101789.66;;;-8.25;66.60
63946;BME280;50122;56.330;43.838;2023-01-16T00:38:04;101784.03;;;-8.34;66.41
63946;BME280;50122;56.330;43.838;2023-01-16T00:40:31;101774.09;;;-8.28;66.89
63946;BME280;50122;56.330;43.838;2023-01-16T00:42:58;101762.72;;;-8.33;66.41
63946;BME280;50122;56.330;43.838;2023-01-16T00:45:24;101765.72;;;-8.40;66.08
63946;BME280;50122;56.330;43.838;2023-01-16T00:47:51;101768.38;;;-8.39;66.41
63946;BME280;50122;56.330;43.838;2023-01-16T00:50:18;101758.34;;;-8.50;66.23
63946;BME280;50122;56.330;43.838;2023-01-16T00:52:45;101765.03;;;-8.52;66.36
63946;BME280;50122;56.330;43.838;2023-01-16T00:55:12;101767.69;;;-8.51;66.42
63946;BME280;50122;56.330;43.838;2023-01-16T00:57:38;101765.41;;;-8.46;66.59
63946;BME280;50122;56.330;43.838;2023-01-16T01:00:05;101766.22;;;-8.47;66.53
63946;BME280;50122;56.330;43.838;2023-01-16T01:02:32;101768.84;;;-8.46;66.24
63946;BME280;50122;56.330;43.838;2023-01-16T01:05:00;101762.84;;;-8.46;66.72
63946;BME280;50122;56.330;43.838;2023-01-16T01:07:26;101758.13;;;-8.39;66.70
63946;BME280;50122;56.330;43.838;2023-01-16T01:09:53;101756.44;;;-8.38;66.61
63946;BME280;50122;56.330;43.838;2023-01-16T01:12:20;101753.78;;;-8.40;66.69
63946;BME280;50122;56.330;43.838;2023-01-16T01:14:46;101734.25;;;-8.38;67.13
63946;BME280;50122;56.330;43.838;2023-01-16T01:17:13;101744.06;;;-8.30;67.48
63946;BME280;50122;56.330;43.838;2023-01-16T01:19:40;101752.88;;;-8.25;67.69
63946;BME280;50122;56.330;43.838;2023-01-16T01:22:09;101745.97;;;-8.26;67.27
63946;BME280;50122;56.330;43.838;2023-01-16T01:24:35;101758.38;;;-8.34;67.18
63946;BME280;50122;56.330;43.838;2023-01-16T01:27:02;101737.34;;;-8.43;67.17
63946;BME280;50122;56.330;43.838;2023-01-16T01:29:29;101764.38;;;-8.33;67.64
63946;BME280;50122;56.330;43.838;2023-01-16T01:31:55;101741.50;;;-8.30;68.13
63946;BME280;50122;56.330;43.838;2023-01-16T01:34:22;101734.59;;;-8.31;68.10
63946;BME280;50122;56.330;43.838;2023-01-16T01:36:49;101741.56;;;-8.29;67.90
63946;BME280;50122;56.330;43.838;2023-01-16T01:39:15;101749.69;;;-8.21;68.23
63946;BME280;50122;56.330;43.838;2023-01-16T01:41:43;101724.59;;;-8.27;68.50
63946;BME280;50122;56.330;43.838;2023-01-16T01:47:33;101742.41;;;-8.13;68.55
63946;BME280;50122;56.330;43.838;2023-01-16T01:50:04;101752.84;;;-8.10;68.45
63946;BME280;50122;56.330;43.838;2023-01-16T01:52:41;101750.19;;;-8.12;68.46
63946;BME280;50122;56.330;43.838;2023-01-16T01:55:09;101739.06;;;-8.12;68.43
63946;BME280;50122;56.330;43.838;2023-01-16T01:57:41;101746.66;;;-8.14;68.68
63946;BME280;50122;56.330;43.838;2023-01-16T02:00:14;101749.06;;;-8.17;68.50
63946;BME280;50122;56.330;43.838;2023-01-16T02:02:47;101733.69;;;-8.17;69.16
63946;BME280;50122;56.330;43.838;2023-01-16T02:05:20;101741.94;;;-8.06;69.40
63946;BME280;50122;56.330;43.838;2023-01-16T02:07:48;101730.56;;;-8.11;68.73
63946;BME280;50122;56.330;43.838;2023-01-16T02:10:38;101743.56;;;-8.08;68.99
63946;BME280;50122;56.330;43.838;2023-01-16T02:13:06;101749.72;;;-8.05;68.98
63946;BME280;50122;56.330;43.838;2023-01-16T02:15:34;101748.63;;;-8.10;69.09
63946;BME280;50122;56.330;43.838;2023-01-16T02:18:01;101752.38;;;-8.03;68.51
63946;BME280;50122;56.330;43.838;2023-01-16T02:23:58;101751.59;;;-8.02;68.65
63946;BME280;50122;56.330;43.838;2023-01-16T02:26:50;101748.06;;;-8.04;68.49
63946;BME280;50122;56.330;43.838;2023-01-16T02:33:05;101746.53;;;-8.00;69.06
63946;BME280;50122;56.330;43.838;2023-01-16T02:38:17;101759.28;;;-8.02;68.62
63946;BME280;50122;56.330;43.838;2023-01-16T02:40:57;101754.53;;;-8.11;68.62
63946;BME280;50122;56.330;43.838;2023-01-16T17:26:57;101492.28;;;-6.63;82.81
63946;BME280;50122;56.330;43.838;2023-01-16T17:32:24;101490.56;;;-6.44;83.91
63946;BME280;50122;56.330;43.838;2023-01-16T17:34:52;101454.88;;;-6.56;83.94
63946;BME280;50122;56.330;43.838;2023-01-16T17:37:19;101494.16;;;-6.21;84.42
63946;BME280;50122;56.330;43.838;2023-01-16T17:39:50;101486.63;;;-6.16;84.53
63946;BME280;50122;56.330;43.838;2023-01-16T17:42:18;101489.44;;;-6.10;84.40
63946;BME280;50122;56.330;43.838;2023-01-16T17:44:45;101471.13;;;-6.18;84.43
63946;BME280;50122;56.330;43.838;2023-01-16T17:47:31;101480.88;;;-6.11;83.80
63946;BME280;50122;56.330;43.838;2023-01-16T17:49:58;101494.44;;;-5.94;83.83
63946;BME280;50122;56.330;43.838;2023-01-16T17:52:44;101500.88;;;-5.82;83.16
63946;BME280;50122;56.330;43.838;2023-01-16T17:55:10;101502.72;;;-5.80;83.59
63946;BME280;50122;56.330;43.838;2023-01-16T17:57:57;101501.72;;;-5.62;83.30
63946;BME280;50122;56.330;43.838;2023-01-16T18:00:24;101500.38;;;-5.54;82.87
63946;BME280;50122;56.330;43.838;2023-01-16T18:02:50;101507.66;;;-5.44;82.60
63946;BME280;50122;56.330;43.838;2023-01-16T18:05:18;101500.94;;;-5.40;81.87
63946;BME280;50122;56.330;43.838;2023-01-16T18:07:45;101494.03;;;-5.41;81.86
63946;BME280;50122;56.330;43.838;2023-01-16T18:10:14;101501.31;;;-5.31;81.42
63946;BME280;50122;56.330;43.838;2023-01-16T18:12:42;101482.06;;;-5.39;81.32
63946;BME280;50122;56.330;43.838;2023-01-16T18:15:27;101498.09;;;-5.25;80.73
63946;BME280;50122;56.330;43.838;2023-01-16T18:18:13;101490.38;;;-5.25;80.79
63946;BME280;50122;56.330;43.838;2023-01-16T18:20:39;101495.06;;;-5.15;80.62
63946;BME280;50122;56.330;43.838;2023-01-16T18:23:06;101492.59;;;-5.12;80.10
63946;BME280;50122;56.330;43.838;2023-01-16T18:25:35;101492.59;;;-5.12;79.36
63946;BME280;50122;56.330;43.838;2023-01-16T18:28:06;101489.16;;;-5.12;79.27
63946;BME280;50122;56.330;43.838;2023-01-16T18:30:33;101479.88;;;-5.07;79.51
63946;BME280;50122;56.330;43.838;2023-01-16T18:33:10;101481.78;;;-5.03;78.78
63946;BME280;50122;56.330;43.838;2023-01-16T18:35:37;101463.44;;;-5.11;78.45
63946;BME280;50122;56.330;43.838;2023-01-16T18:38:05;101479.31;;;-5.00;78.22
63946;BME280;50122;56.330;43.838;2023-01-16T18:40:51;101470.69;;;-5.00;77.84
63946;BME280;50122;56.330;43.838;2023-01-16T18:43:36;101467.94;;;-5.05;77.58
63946;BME280;50122;56.330;43.838;2023-01-16T18:46:24;101485.53;;;-4.95;77.68
63946;BME280;50122;56.330;43.838;2023-01-16T18:49:10;101476.09;;;-4.94;77.39
63946;BME280;50122;56.330;43.838;2023-01-16T18:51:55;101474.53;;;-4.91;77.01
63946;BME280;50122;56.330;43.838;2023-01-16T18:54:42;101471.19;;;-4.88;77.21
63946;BME280;50122;56.330;43.838;2023-01-16T18:57:29;101475.44;;;-4.89;76.73
63946;BME280;50122;56.330;43.838;2023-01-16T19:00:15;101477.31;;;-4.84;76.09
63946;BME280;50122;56.330;43.838;2023-01-16T19:03:04;101479.72;;;-4.89;75.39
63946;BME280;50122;56.330;43.838;2023-01-16T19:05:30;101476.19;;;-4.91;75.62
63946;BME280;50122;56.330;43.838;2023-01-16T19:08:00;101479.72;;;-4.89;75.50
63946;BME280;50122;56.330;43.838;2023-01-16T19:10:33;101467.66;;;-4.90;74.91
63946;BME280;50122;56.330;43.838;2023-01-16T19:13:02;101466.63;;;-4.95;75.07
63946;BME280;50122;56.330;43.838;2023-01-16T19:15:32;101483.34;;;-4.84;75.15
63946;BME280;50122;56.330;43.838;2023-01-16T19:18:01;101463.44;;;-4.88;75.06
63946;BME280;50122;56.330;43.838;2023-01-16T19:20:28;101467.97;;;-4.82;74.60
63946;BME280;50122;56.330;43.838;2023-01-16T19:22:57;101461.03;;;-4.83;74.78
63946;BME280;50122;56.330;43.838;2023-01-16T19:25:25;101476.56;;;-4.82;74.68
63946;BME280;50122;56.330;43.838;2023-01-16T19:27:56;101468.84;;;-4.82;74.78
63946;BME280;50122;56.330;43.838;2023-01-16T19:30:23;101466.94;;;-4.86;74.38
63946;BME280;50122;56.330;43.838;2023-01-16T19:32:49;101466.19;;;-4.83;74.23
63946;BME280;50122;56.330;43.838;2023-01-16T19:35:16;101464.47;;;-4.83;74.33
63946;BME280;50122;56.330;43.838;2023-01-16T19:37:44;101459.38;;;-4.81;74.40
63946;BME280;50122;56.330;43.838;2023-01-16T19:40:15;101467.38;;;-4.75;74.59
63946;BME280;50122;56.330;43.838;2023-01-16T19:42:43;101462.06;;;-4.78;74.19
63946;BME280;50122;56.330;43.838;2023-01-16T19:45:29;101475.88;;;-4.78;74.10
63946;BME280;50122;56.330;43.838;2023-01-16T19:48:24;101462.66;;;-4.85;74.06
63946;BME280;50122;56.330;43.838;2023-01-16T19:50:52;101479.53;;;-4.71;74.62
63946;BME280;50122;56.330;43.838;2023-01-16T19:53:19;101463.84;;;-4.77;74.15
63946;BME280;50122;56.330;43.838;2023-01-16T19:55:58;101460.63;;;-4.72;73.71
63946;BME280;50122;56.330;43.838;2023-01-16T19:58:25;101464.00;;;-4.73;73.46
63946;BME280;50122;56.330;43.838;2023-01-16T20:00:52;101469.41;;;-4.66;73.40
63946;BME280;50122;56.330;43.838;2023-01-16T20:03:28;101464.00;;;-4.73;72.45
63946;BME280;50122;56.330;43.838;2023-01-16T20:05:56;101469.16;;;-4.73;72.85
63946;BME280;50122;56.330;43.838;2023-01-16T20:08:23;101469.09;;;-4.74;72.59
63946;BME280;50122;56.330;43.838;2023-01-16T20:10:52;101470.72;;;-4.78;72.37
63946;BME280;50122;56.330;43.838;2023-01-16T20:13:19;101446.97;;;-4.92;72.30
63946;BME280;50122;56.330;43.838;2023-01-16T20:15:47;101477.75;;;-4.74;72.31
63946;BME280;50122;56.330;43.838;2023-01-16T20:18:14;101457.56;;;-4.84;72.31
63946;BME280;50122;56.330;43.838;2023-01-16T20:20:41;101466.38;;;-4.79;72.19
63946;BME280;50122;56.330;43.838;2023-01-16T20:23:08;101459.22;;;-4.86;71.95
63946;BME280;50122;56.330;43.838;2023-01-16T20:25:39;101470.75;;;-4.76;72.45
63946;BME280;50122;56.330;43.838;2023-01-16T20:28:06;101454.81;;;-4.89;72.69
63946;BME280;50122;56.330;43.838;2023-01-16T20:30:33;101467.28;;;-4.77;72.49
63946;BME280;50122;56.330;43.838;2023-01-16T20:33:14;101469.88;;;-4.77;71.81
63946;BME280;50122;56.330;43.838;2023-01-16T20:35:42;101456.81;;;-4.81;71.59
63946;BME280;50122;56.330;43.838;2023-01-16T20:38:08;101465.50;;;-4.79;71.73
63946;BME280;50122;56.330;43.838;2023-01-16T20:40:35;101457.56;;;-4.84;71.63
63946;BME280;50122;56.330;43.838;2023-01-16T20:43:02;101450.56;;;-4.88;71.68
63946;BME280;50122;56.330;43.838;2023-01-16T20:45:47;101460.97;;;-4.85;71.23
63946;BME280;50122;56.330;43.838;2023-01-16T20:48:27;101459.22;;;-4.86;70.80
63946;BME280;50122;56.330;43.838;2023-01-16T20:50:54;101474.56;;;-4.89;70.89
63946;BME280;50122;56.330;43.838;2023-01-16T20:53:21;101474.19;;;-4.98;70.88
63946;BME280;50122;56.330;43.838;2023-01-16T20:55:48;101478.44;;;-5.00;70.84
63946;BME280;50122;56.330;43.838;2023-01-16T20:58:15;101485.41;;;-4.98;71.03
63946;BME280;50122;56.330;43.838;2023-01-16T21:00:42;101486.16;;;-5.00;71.28
63946;BME280;50122;56.330;43.838;2023-01-16T21:03:09;101499.19;;;-4.97;70.59
63946;BME280;50122;56.330;43.838;2023-01-16T21:05:36;101506.16;;;-4.95;70.71
63946;BME280;50122;56.330;43.838;2023-01-16T21:08:03;101512.28;;;-4.91;71.13
63946;BME280;50122;56.330;43.838;2023-01-16T21:10:30;101507.13;;;-4.91;71.23
63946;BME280;50122;56.330;43.838;2023-01-16T21:12:58;101509.44;;;-4.99;70.53
63946;BME280;50122;56.330;43.838;2023-01-16T21:15:46;101505.22;;;-4.97;70.79
63946;BME280;50122;56.330;43.838;2023-01-16T21:18:14;101508.69;;;-4.96;70.60
63946;BME280;50122;56.330;43.838;2023-01-16T21:20:59;101499.13;;;-4.99;70.62
63946;BME280;50122;56.330;43.838;2023-01-16T21:23:47;101509.59;;;-4.94;70.43
63946;BME280;50122;56.330;43.838;2023-01-16T21:26:15;101504.34;;;-4.97;70.67
63946;BME280;50122;56.330;43.838;2023-01-16T21:28:42;101509.44;;;-4.99;71.11
63946;BME280;50122;56.330;43.838;2023-01-16T21:31:09;101511.31;;;-4.95;71.10
63946;BME280;50122;56.330;43.838;2023-01-16T21:33:39;101516.47;;;-4.95;70.50
63946;BME280;50122;56.330;43.838;2023-01-16T21:36:09;101511.19;;;-4.98;70.46
63946;BME280;50122;56.330;43.838;2023-01-16T21:38:39;101516.03;;;-5.06;70.86
63946;BME280;50122;56.330;43.838;2023-01-16T21:41:13;101505.72;;;-5.06;70.83
63946;BME280;50122;56.330;43.838;2023-01-16T21:43:42;101515.22;;;-5.04;70.37
63946;BME280;50122;56.330;43.838;2023-01-16T21:46:30;101516.69;;;-5.11;70.03
63946;BME280;50122;56.330;43.838;2023-01-16T21:49:00;101521.75;;;-5.13;70.77
63946;BME280;50122;56.330;43.838;2023-01-16T21:51:29;101520.94;;;-5.12;70.91
63946;BME280;50122;56.330;43.838;2023-01-16T21:53:56;101512.34;;;-5.12;71.22
63946;BME280;50122;56.330;43.838;2023-01-16T21:56:23;101507.13;;;-5.14;70.71
63946;BME280;50122;56.330;43.838;2023-01-16T21:58:49;101508.75;;;-5.16;70.57
63946;BME280;50122;56.330;43.838;2023-01-16T22:01:17;101501.03;;;-5.16;71.35
63946;BME280;50122;56.330;43.838;2023-01-16T22:03:43;101475.94;;;-5.20;70.97
63946;BME280;50122;56.330;43.838;2023-01-16T22:06:10;101504.91;;;-5.04;71.40
63946;BME280;50122;56.330;43.838;2023-01-16T22:08:38;101500.72;;;-5.02;71.12
63946;BME280;50122;56.330;43.838;2023-01-16T22:11:11;101489.09;;;-5.14;70.27
63946;BME280;50122;56.330;43.838;2023-01-16T22:13:56;101508.88;;;-5.13;70.97
63946;BME280;50122;56.330;43.838;2023-01-16T22:16:42;101509.78;;;-5.12;71.23
63946;BME280;50122;56.330;43.838;2023-01-16T22:19:29;101512.19;;;-5.17;70.56
63946;BME280;50122;56.330;43.838;2023-01-16T22:21:58;101513.84;;;-5.17;71.17
63946;BME280;50122;56.330;43.838;2023-01-16T22:24:26;101507.06;;;-5.15;71.37
63946;BME280;50122;56.330;43.838;2023-01-16T22:26:52;101512.41;;;-5.11;72.05
63946;BME280;50122;56.330;43.838;2023-01-16T22:29:19;101502.97;;;-5.10;71.68
63946;BME280;50122;56.330;43.838;2023-01-16T22:31:50;101523.75;;;-5.06;71.50
63946;BME280;50122;56.330;43.838;2023-01-16T22:34:17;101518.69;;;-5.04;71.44
63946;BME280;50122;56.330;43.838;2023-01-16T22:36:47;101517.81;;;-5.04;71.48
63946;BME280;50122;56.330;43.838;2023-01-16T22:39:14;101510.06;;;-5.04;71.38
63946;BME280;50122;56.330;43.838;2023-01-16T22:41:43;101512.59;;;-5.06;71.18
63946;BME280;50122;56.330;43.838;2023-01-16T22:44:10;101504.56;;;-5.14;71.57
63946;BME280;50122;56.330;43.838;2023-01-16T22:46:55;101520.94;;;-5.12;71.39
63946;BME280;50122;56.330;43.838;2023-01-16T22:49:22;101516.81;;;-5.08;72.12
63946;BME280;50122;56.330;43.838;2023-01-16T22:51:49;101505.47;;;-5.12;72.18
63946;BME280;50122;56.330;43.838;2023-01-16T22:54:16;101502.03;;;-5.12;71.91
63946;BME280;50122;56.330;43.838;2023-01-16T22:56:42;101501.13;;;-5.13;72.27
63946;BME280;50122;56.330;43.838;2023-01-16T22:59:09;101508.97;;;-5.11;72.15
63946;BME280;50122;56.330;43.838;2023-01-16T23:01:36;101499.34;;;-5.15;71.88
63946;BME280;50122;56.330;43.838;2023-01-16T23:04:02;101507.06;;;-5.15;72.04
63946;BME280;50122;56.330;43.838;2023-01-16T23:06:29;101478.69;;;-5.38;72.44
63946;BME280;50122;56.330;43.838;2023-01-16T23:08:56;101513.09;;;-5.15;72.66
63946;BME280;50122;56.330;43.838;2023-01-16T23:13:55;101506.38;;;-5.11;72.43
63946;BME280;50122;56.330;43.838;2023-01-16T23:16:23;101507.19;;;-5.12;72.66
63946;BME280;50122;56.330;43.838;2023-01-16T23:18:51;101514.19;;;-5.10;72.00
63946;BME280;50122;56.330;43.838;2023-01-16T23:21:18;101520.19;;;-5.09;72.61
63946;BME280;50122;56.330;43.838;2023-01-16T23:23:45;101524.50;;;-5.10;72.37
63946;BME280;50122;56.330;43.838;2023-01-16T23:26:14;101530.50;;;-5.09;72.46
63946;BME280;50122;56.330;43.838;2023-01-16T23:28:43;101516.75;;;-5.10;72.82
63946;BME280;50122;56.330;43.838;2023-01-16T23:31:16;101517.50;;;-5.12;72.45
63946;BME280;50122;56.330;43.838;2023-01-16T23:33:43;101519.91;;;-5.17;72.55
63946;BME280;50122;56.330;43.838;2023-01-16T23:36:18;101522.44;;;-5.18;72.96
63946;BME280;50122;56.330;43.838;2023-01-16T23:38:47;101516.38;;;-5.19;73.07
63946;BME280;50122;56.330;43.838;2023-01-16T23:41:16;101517.28;;;-5.18;72.94
63946;BME280;50122;56.330;43.838;2023-01-16T23:43:45;101525.75;;;-5.21;73.30
63946;BME280;50122;56.330;43.838;2023-01-16T23:46:34;101515.38;;;-5.22;73.17
63946;BME280;50122;56.330;43.838;2023-01-16T23:49:02;101502.00;;;-5.35;73.20
63946;BME280;50122;56.330;43.838;2023-01-16T23:51:29;101472.91;;;-5.53;72.66
63946;BME280;50122;56.330;43.838;2023-01-16T23:53:56;101513.19;;;-5.34;72.78
63946;BME280;50122;56.330;43.838;2023-01-16T23:56:22;101525.97;;;-5.36;72.89
63946;BME280;50122;56.330;43.838;2023-01-16T23:58:49;101515.19;;;-5.48;72.97
